Bar Harbor, ME (04609)

11:10 PM EDT on May 22, 2017 (GMT -0400)
19 Strawberry Hill Road | | Change Station

Elev 173 ft 44.37 °N, 68.20 °W | Updated 16 seconds ago

Overcast
Overcast
44.9 °F
Feels Like 38 °F
N
16.0
Wind Variable Wind from South
Gusts 16.0 mph

Today
High -- | Low -- °F
--% Chance of Precip.
Yesterday
High -- | Low -- °F
Precip. -- in
Pressure 30.07 in
Visibility 10.0 miles
Clouds Scattered Clouds 900 ft
Mostly Cloudy 1500 ft
Overcast 2000 ft
Windchill 38 °F
Dew Point 44 °F
Humidity 96%
Rainfall 0.13 in
Snow Depth Not available.
4:58 AM 8:01 PM
Waning Crescent, 11% visible
METAR KBHB 230256Z AUTO 19009KT 10SM SCT009 BKN015 OVC020 07/07 A3005 RMK AO2 RAE38 SLP181 P0001 60006 T00720067 58018
Pressure 30.07 in
Visibility 10.0 miles
Clouds Scattered Clouds 900 ft
Mostly Cloudy 1500 ft
Overcast 2000 ft
Windchill 38 °F
Dew Point 44 °F
Humidity 96%
Rainfall 0.13 in
Snow Depth Not available.
4:58 AM 8:01 PM
Waning Crescent, 11% visible
METAR KBHB 230256Z AUTO 19009KT 10SM SCT009 BKN015 OVC020 07/07 A3005 RMK AO2 RAE38 SLP181 P0001 60006 T00720067 58018

Get Severe Weather Alerts

Thanks for signing up!

Be on the lookout for a verification email in your inbox.

You'll start receiving the daily forecast at 6 AM.

×

10-Day Weather Forecast

Almanac

Astronomy

May. 22, 2017 Rise Set
Actual Time
Civil Twilight
Nautical Twilight
Astronomical Twilight
Moon
Length of Visible Light
Length of Day
Tomorrow will be .
, % of the Moon is Illuminated

Today's Extremes

State Highs State Lows

Community

WunderPhotos

Category 6

Welcome to Category 6. This is the collective home for Weather Underground's featured writeups by Dr. Jeff Masters (right), Bob Henson (left), Chris Burt, and other regular contributors.

Nearby

Air Quality

  Air Quality AQ Index Pollutant
Not available.

Snow Depth

Station Depth Elevation

Earthquake Activity

City Distance Mag. Time & Date
Minimum magnitude displayed is 2.5.

Coastal Water Temperatures

Place Temperature

Stations

Nearby Weather Stations

Station Location Temp. Windchill Dew Point Humidity Wind Precip. Elev Updated Type
                   

Watches & Warnings

There are currently no watches in effect.